sensor_id;sensor_type;location;lat;lon;timestamp;P1;durP1;ratioP1;P2;durP2;ratioP2
15112;SDS011;7657;50.140;7.076;2023-07-24T00:01:58;2.35;;;2.15;;
15112;SDS011;7657;50.140;7.076;2023-07-24T00:04:25;1.83;;;1.70;;
15112;SDS011;7657;50.140;7.076;2023-07-24T00:06:52;2.95;;;1.83;;
15112;SDS011;7657;50.140;7.076;2023-07-24T00:09:19;2.38;;;1.95;;
15112;SDS011;7657;50.140;7.076;2023-07-24T00:11:46;2.05;;;1.92;;
15112;SDS011;7657;50.140;7.076;2023-07-24T00:14:14;2.20;;;2.00;;
15112;SDS011;7657;50.140;7.076;2023-07-24T00:16:41;2.45;;;2.00;;
15112;SDS011;7657;50.140;7.076;2023-07-24T00:19:09;4.30;;;2.00;;
15112;SDS011;7657;50.140;7.076;2023-07-24T00:21:36;2.35;;;2.15;;
15112;SDS011;7657;50.140;7.076;2023-07-24T00:24:03;5.13;;;1.85;;
15112;SDS011;7657;50.140;7.076;2023-07-24T00:26:31;2.30;;;2.10;;
15112;SDS011;7657;50.140;7.076;2023-07-24T00:28:58;4.05;;;1.98;;
15112;SDS011;7657;50.140;7.076;2023-07-24T00:31:25;2.20;;;2.00;;
15112;SDS011;7657;50.140;7.076;2023-07-24T00:33:52;2.63;;;2.10;;
15112;SDS011;7657;50.140;7.076;2023-07-24T00:36:20;2.50;;;2.13;;
15112;SDS011;7657;50.140;7.076;2023-07-24T00:38:47;2.05;;;1.80;;
15112;SDS011;7657;50.140;7.076;2023-07-24T00:41:14;3.15;;;2.00;;
15112;SDS011;7657;50.140;7.076;2023-07-24T00:43:41;3.55;;;2.17;;
15112;SDS011;7657;50.140;7.076;2023-07-24T00:46:08;2.63;;;2.25;;
15112;SDS011;7657;50.140;7.076;2023-07-24T00:48:36;2.58;;;2.38;;
15112;SDS011;7657;50.140;7.076;2023-07-24T00:51:03;2.63;;;1.95;;
15112;SDS011;7657;50.140;7.076;2023-07-24T00:53:32;5.28;;;2.10;;
15112;SDS011;7657;50.140;7.076;2023-07-24T00:55:59;2.28;;;2.05;;
15112;SDS011;7657;50.140;7.076;2023-07-24T00:58:27;3.20;;;2.30;;
15112;SDS011;7657;50.140;7.076;2023-07-24T01:00:54;2.40;;;1.90;;
15112;SDS011;7657;50.140;7.076;2023-07-24T01:03:21;2.60;;;2.40;;
15112;SDS011;7657;50.140;7.076;2023-07-24T01:05:53;2.47;;;2.22;;
15112;SDS011;7657;50.140;7.076;2023-07-24T01:08:21;2.85;;;2.13;;
15112;SDS011;7657;50.140;7.076;2023-07-24T01:10:49;3.05;;;2.20;;
15112;SDS011;7657;50.140;7.076;2023-07-24T01:13:18;2.03;;;1.77;;
15112;SDS011;7657;50.140;7.076;2023-07-24T01:15:54;2.60;;;2.30;;
15112;SDS011;7657;50.140;7.076;2023-07-24T01:18:28;3.75;;;2.10;;
15112;SDS011;7657;50.140;7.076;2023-07-24T01:20:57;2.97;;;2.20;;
15112;SDS011;7657;50.140;7.076;2023-07-24T01:23:30;2.78;;;2.50;;
15112;SDS011;7657;50.140;7.076;2023-07-24T01:26:11;3.95;;;2.25;;
15112;SDS011;7657;50.140;7.076;2023-07-24T01:28:39;2.30;;;2.10;;
15112;SDS011;7657;50.140;7.076;2023-07-24T01:31:06;3.47;;;2.58;;
15112;SDS011;7657;50.140;7.076;2023-07-24T01:33:32;2.25;;;2.15;;
15112;SDS011;7657;50.140;7.076;2023-07-24T01:36:00;2.22;;;2.00;;
15112;SDS011;7657;50.140;7.076;2023-07-24T01:38:30;2.50;;;2.10;;
15112;SDS011;7657;50.140;7.076;2023-07-24T01:40:59;2.42;;;1.95;;
15112;SDS011;7657;50.140;7.076;2023-07-24T01:43:28;2.35;;;2.15;;
15112;SDS011;7657;50.140;7.076;2023-07-24T01:45:57;3.42;;;1.98;;
15112;SDS011;7657;50.140;7.076;2023-07-24T01:48:24;3.60;;;2.10;;
15112;SDS011;7657;50.140;7.076;2023-07-24T01:50:51;2.50;;;1.90;;
15112;SDS011;7657;50.140;7.076;2023-07-24T01:53:17;2.88;;;2.38;;
15112;SDS011;7657;50.140;7.076;2023-07-24T01:55:44;3.08;;;2.10;;
15112;SDS011;7657;50.140;7.076;2023-07-24T01:58:11;2.40;;;2.15;;
15112;SDS011;7657;50.140;7.076;2023-07-24T02:00:39;3.25;;;2.58;;
15112;SDS011;7657;50.140;7.076;2023-07-24T02:03:06;2.83;;;2.55;;
15112;SDS011;7657;50.140;7.076;2023-07-24T02:05:33;2.75;;;2.40;;
15112;SDS011;7657;50.140;7.076;2023-07-24T02:08:00;3.50;;;2.60;;
15112;SDS011;7657;50.140;7.076;2023-07-24T02:10:27;2.75;;;2.17;;
15112;SDS011;7657;50.140;7.076;2023-07-24T02:12:54;2.83;;;2.50;;
15112;SDS011;7657;50.140;7.076;2023-07-24T02:15:21;3.15;;;2.20;;
15112;SDS011;7657;50.140;7.076;2023-07-24T02:17:49;2.83;;;2.22;;
15112;SDS011;7657;50.140;7.076;2023-07-24T02:20:16;3.50;;;2.10;;
15112;SDS011;7657;50.140;7.076;2023-07-24T02:22:43;3.20;;;2.20;;
15112;SDS011;7657;50.140;7.076;2023-07-24T02:25:10;2.72;;;2.30;;
15112;SDS011;7657;50.140;7.076;2023-07-24T02:27:37;2.97;;;2.63;;
15112;SDS011;7657;50.140;7.076;2023-07-24T02:30:04;2.28;;;2.10;;
15112;SDS011;7657;50.140;7.076;2023-07-24T02:32:31;2.63;;;2.30;;
15112;SDS011;7657;50.140;7.076;2023-07-24T02:35:00;2.42;;;2.22;;
15112;SDS011;7657;50.140;7.076;2023-07-24T02:37:26;4.53;;;2.35;;
15112;SDS011;7657;50.140;7.076;2023-07-24T02:39:53;3.15;;;2.22;;
15112;SDS011;7657;50.140;7.076;2023-07-24T02:42:20;2.60;;;2.38;;
15112;SDS011;7657;50.140;7.076;2023-07-24T02:44:47;2.38;;;2.17;;
15112;SDS011;7657;50.140;7.076;2023-07-24T02:47:14;3.42;;;2.60;;
15112;SDS011;7657;50.140;7.076;2023-07-24T02:49:41;2.58;;;2.38;;
15112;SDS011;7657;50.140;7.076;2023-07-24T02:52:09;2.58;;;2.38;;
15112;SDS011;7657;50.140;7.076;2023-07-24T02:54:36;4.00;;;2.58;;
15112;SDS011;7657;50.140;7.076;2023-07-24T02:57:03;3.47;;;2.88;;
15112;SDS011;7657;50.140;7.076;2023-07-24T02:59:30;3.25;;;2.53;;
15112;SDS011;7657;50.140;7.076;2023-07-24T03:01:57;3.55;;;2.80;;
15112;SDS011;7657;50.140;7.076;2023-07-24T03:04:25;3.40;;;2.80;;
15112;SDS011;7657;50.140;7.076;2023-07-24T03:06:52;3.78;;;3.00;;
15112;SDS011;7657;50.140;7.076;2023-07-24T03:09:20;2.85;;;2.60;;
15112;SDS011;7657;50.140;7.076;2023-07-24T03:11:47;3.05;;;2.63;;
15112;SDS011;7657;50.140;7.076;2023-07-24T03:14:14;4.07;;;3.08;;
15112;SDS011;7657;50.140;7.076;2023-07-24T03:16:40;5.20;;;3.08;;
15112;SDS011;7657;50.140;7.076;2023-07-24T03:19:07;3.65;;;2.78;;
15112;SDS011;7657;50.140;7.076;2023-07-24T03:21:34;3.15;;;2.72;;
15112;SDS011;7657;50.140;7.076;2023-07-24T03:24:01;3.80;;;2.67;;
15112;SDS011;7657;50.140;7.076;2023-07-24T03:26:29;3.28;;;2.47;;
15112;SDS011;7657;50.140;7.076;2023-07-24T03:28:56;3.10;;;2.80;;
15112;SDS011;7657;50.140;7.076;2023-07-24T03:31:23;3.80;;;2.90;;
15112;SDS011;7657;50.140;7.076;2023-07-24T03:33:50;4.97;;;2.60;;
15112;SDS011;7657;50.140;7.076;2023-07-24T03:36:17;4.30;;;2.90;;
15112;SDS011;7657;50.140;7.076;2023-07-24T03:38:44;2.92;;;2.60;;
15112;SDS011;7657;50.140;7.076;2023-07-24T03:41:10;3.47;;;2.28;;
15112;SDS011;7657;50.140;7.076;2023-07-24T03:43:39;5.63;;;3.10;;
15112;SDS011;7657;50.140;7.076;2023-07-24T03:46:05;4.60;;;3.20;;
15112;SDS011;7657;50.140;7.076;2023-07-24T03:48:32;3.15;;;2.53;;
15112;SDS011;7657;50.140;7.076;2023-07-24T03:51:00;3.20;;;2.92;;
15112;SDS011;7657;50.140;7.076;2023-07-24T03:53:27;3.20;;;2.78;;
15112;SDS011;7657;50.140;7.076;2023-07-24T03:55:54;3.10;;;2.80;;
15112;SDS011;7657;50.140;7.076;2023-07-24T03:58:21;3.78;;;2.80;;
15112;SDS011;7657;50.140;7.076;2023-07-24T04:00:49;3.40;;;2.95;;
15112;SDS011;7657;50.140;7.076;2023-07-24T04:03:16;3.70;;;2.45;;
15112;SDS011;7657;50.140;7.076;2023-07-24T04:05:43;4.03;;;2.95;;
15112;SDS011;7657;50.140;7.076;2023-07-24T04:08:10;3.28;;;2.70;;
15112;SDS011;7657;50.140;7.076;2023-07-24T04:10:37;3.25;;;2.75;;
15112;SDS011;7657;50.140;7.076;2023-07-24T04:13:04;3.05;;;2.50;;
15112;SDS011;7657;50.140;7.076;2023-07-24T04:15:31;3.15;;;2.83;;
15112;SDS011;7657;50.140;7.076;2023-07-24T04:17:59;3.00;;;2.70;;
15112;SDS011;7657;50.140;7.076;2023-07-24T04:20:26;3.97;;;2.95;;
15112;SDS011;7657;50.140;7.076;2023-07-24T04:22:53;3.22;;;2.90;;
15112;SDS011;7657;50.140;7.076;2023-07-24T04:25:20;3.42;;;3.13;;
15112;SDS011;7657;50.140;7.076;2023-07-24T04:27:47;4.22;;;2.80;;
15112;SDS011;7657;50.140;7.076;2023-07-24T04:30:13;3.55;;;3.03;;
15112;SDS011;7657;50.140;7.076;2023-07-24T04:32:41;3.72;;;3.00;;
15112;SDS011;7657;50.140;7.076;2023-07-24T04:35:10;3.72;;;3.00;;
15112;SDS011;7657;50.140;7.076;2023-07-24T04:37:37;3.20;;;2.70;;
15112;SDS011;7657;50.140;7.076;2023-07-24T04:40:04;4.70;;;3.45;;
15112;SDS011;7657;50.140;7.076;2023-07-24T04:42:31;3.70;;;2.80;;
15112;SDS011;7657;50.140;7.076;2023-07-24T04:44:58;4.68;;;3.33;;
15112;SDS011;7657;50.140;7.076;2023-07-24T04:47:25;4.63;;;3.10;;
15112;SDS011;7657;50.140;7.076;2023-07-24T04:49:52;4.93;;;3.08;;
15112;SDS011;7657;50.140;7.076;2023-07-24T04:52:21;5.10;;;3.15;;
15112;SDS011;7657;50.140;7.076;2023-07-24T04:54:48;4.47;;;3.03;;
15112;SDS011;7657;50.140;7.076;2023-07-24T04:57:15;3.80;;;3.40;;
15112;SDS011;7657;50.140;7.076;2023-07-24T04:59:42;5.03;;;3.17;;
15112;SDS011;7657;50.140;7.076;2023-07-24T05:02:09;4.70;;;3.35;;
15112;SDS011;7657;50.140;7.076;2023-07-24T05:04:35;5.57;;;3.25;;
15112;SDS011;7657;50.140;7.076;2023-07-24T05:07:02;4.25;;;3.55;;
15112;SDS011;7657;50.140;7.076;2023-07-24T05:09:31;5.00;;;3.15;;
15112;SDS011;7657;50.140;7.076;2023-07-24T05:11:58;3.63;;;3.05;;
15112;SDS011;7657;50.140;7.076;2023-07-24T05:14:24;5.18;;;3.20;;
15112;SDS011;7657;50.140;7.076;2023-07-24T05:16:51;4.55;;;3.13;;
15112;SDS011;7657;50.140;7.076;2023-07-24T05:19:18;7.55;;;3.38;;
15112;SDS011;7657;50.140;7.076;2023-07-24T05:21:45;5.05;;;3.30;;
15112;SDS011;7657;50.140;7.076;2023-07-24T05:24:12;7.22;;;3.65;;
15112;SDS011;7657;50.140;7.076;2023-07-24T05:26:40;4.88;;;3.20;;
15112;SDS011;7657;50.140;7.076;2023-07-24T05:29:07;4.70;;;3.50;;
15112;SDS011;7657;50.140;7.076;2023-07-24T05:31:34;3.97;;;3.10;;
15112;SDS011;7657;50.140;7.076;2023-07-24T05:34:01;4.10;;;3.20;;
15112;SDS011;7657;50.140;7.076;2023-07-24T05:36:28;4.85;;;3.42;;
15112;SDS011;7657;50.140;7.076;2023-07-24T05:38:55;5.03;;;3.50;;
15112;SDS011;7657;50.140;7.076;2023-07-24T05:41:22;5.43;;;3.40;;
15112;SDS011;7657;50.140;7.076;2023-07-24T05:43:51;4.95;;;3.17;;
15112;SDS011;7657;50.140;7.076;2023-07-24T05:46:18;3.50;;;3.20;;
15112;SDS011;7657;50.140;7.076;2023-07-24T05:48:45;5.93;;;3.63;;
15112;SDS011;7657;50.140;7.076;2023-07-24T05:51:12;4.97;;;3.17;;
15112;SDS011;7657;50.140;7.076;2023-07-24T05:53:38;3.58;;;3.00;;
15112;SDS011;7657;50.140;7.076;2023-07-24T05:56:05;4.05;;;3.25;;
15112;SDS011;7657;50.140;7.076;2023-07-24T05:58:32;4.13;;;3.30;;
15112;SDS011;7657;50.140;7.076;2023-07-24T06:01:01;4.57;;;3.00;;
15112;SDS011;7657;50.140;7.076;2023-07-24T06:03:28;4.57;;;3.10;;
15112;SDS011;7657;50.140;7.076;2023-07-24T06:05:55;5.03;;;3.50;;
15112;SDS011;7657;50.140;7.076;2023-07-24T06:08:22;6.13;;;3.67;;
15112;SDS011;7657;50.140;7.076;2023-07-24T06:10:49;4.10;;;3.20;;
15112;SDS011;7657;50.140;7.076;2023-07-24T06:13:17;4.53;;;3.60;;
15112;SDS011;7657;50.140;7.076;2023-07-24T06:15:44;5.70;;;3.85;;
15112;SDS011;7657;50.140;7.076;2023-07-24T06:18:14;4.18;;;3.30;;
15112;SDS011;7657;50.140;7.076;2023-07-24T06:20:41;4.18;;;3.13;;
15112;SDS011;7657;50.140;7.076;2023-07-24T06:23:07;5.75;;;3.80;;
15112;SDS011;7657;50.140;7.076;2023-07-24T06:25:34;6.75;;;3.22;;
15112;SDS011;7657;50.140;7.076;2023-07-24T06:28:01;3.85;;;3.22;;
15112;SDS011;7657;50.140;7.076;2023-07-24T06:30:28;4.93;;;3.38;;
15112;SDS011;7657;50.140;7.076;2023-07-24T06:32:55;6.60;;;3.38;;
15112;SDS011;7657;50.140;7.076;2023-07-24T06:35:23;3.50;;;3.13;;
15112;SDS011;7657;50.140;7.076;2023-07-24T06:37:50;3.63;;;3.05;;
15112;SDS011;7657;50.140;7.076;2023-07-24T06:40:17;4.50;;;3.55;;
15112;SDS011;7657;50.140;7.076;2023-07-24T06:42:44;6.53;;;3.40;;
15112;SDS011;7657;50.140;7.076;2023-07-24T06:45:12;4.38;;;3.47;;
15112;SDS011;7657;50.140;7.076;2023-07-24T06:47:38;4.35;;;3.30;;
15112;SDS011;7657;50.140;7.076;2023-07-24T06:50:06;5.28;;;3.22;;
15112;SDS011;7657;50.140;7.076;2023-07-24T06:52:35;4.35;;;3.13;;
15112;SDS011;7657;50.140;7.076;2023-07-24T06:55:02;4.88;;;3.53;;
15112;SDS011;7657;50.140;7.076;2023-07-24T06:57:29;4.97;;;3.60;;
15112;SDS011;7657;50.140;7.076;2023-07-24T06:59:56;4.70;;;3.40;;
15112;SDS011;7657;50.140;7.076;2023-07-24T07:02:23;4.10;;;3.03;;
15112;SDS011;7657;50.140;7.076;2023-07-24T07:04:50;6.32;;;3.22;;
15112;SDS011;7657;50.140;7.076;2023-07-24T07:07:17;3.38;;;3.05;;
15112;SDS011;7657;50.140;7.076;2023-07-24T07:09:45;4.47;;;2.78;;
15112;SDS011;7657;50.140;7.076;2023-07-24T07:12:12;4.80;;;3.05;;
15112;SDS011;7657;50.140;7.076;2023-07-24T07:14:38;4.63;;;2.90;;
15112;SDS011;7657;50.140;7.076;2023-07-24T07:17:05;5.55;;;3.40;;
15112;SDS011;7657;50.140;7.076;2023-07-24T07:19:32;5.28;;;3.22;;
15112;SDS011;7657;50.140;7.076;2023-07-24T07:22:01;5.93;;;3.50;;
15112;SDS011;7657;50.140;7.076;2023-07-24T07:24:28;3.92;;;3.38;;
15112;SDS011;7657;50.140;7.076;2023-07-24T07:26:56;9.35;;;3.38;;
15112;SDS011;7657;50.140;7.076;2023-07-24T07:29:23;7.88;;;3.17;;
15112;SDS011;7657;50.140;7.076;2023-07-24T07:31:50;3.50;;;3.20;;
15112;SDS011;7657;50.140;7.076;2023-07-24T07:34:16;5.78;;;3.28;;
15112;SDS011;7657;50.140;7.076;2023-07-24T07:36:43;5.88;;;3.30;;
15112;SDS011;7657;50.140;7.076;2023-07-24T07:39:10;5.75;;;3.58;;
15112;SDS011;7657;50.140;7.076;2023-07-24T07:41:37;3.28;;;2.97;;
15112;SDS011;7657;50.140;7.076;2023-07-24T07:44:05;4.40;;;3.58;;
15112;SDS011;7657;50.140;7.076;2023-07-24T07:46:32;4.28;;;3.47;;
15112;SDS011;7657;50.140;7.076;2023-07-24T07:48:59;6.72;;;5.07;;
15112;SDS011;7657;50.140;7.076;2023-07-24T07:51:26;4.70;;;3.17;;
15112;SDS011;7657;50.140;7.076;2023-07-24T07:53:53;3.80;;;3.40;;
15112;SDS011;7657;50.140;7.076;2023-07-24T07:56:19;3.67;;;2.83;;
15112;SDS011;7657;50.140;7.076;2023-07-24T07:58:46;4.80;;;3.15;;
15112;SDS011;7657;50.140;7.076;2023-07-24T08:01:15;5.03;;;3.13;;
15112;SDS011;7657;50.140;7.076;2023-07-24T08:03:42;4.40;;;3.88;;
15112;SDS011;7657;50.140;7.076;2023-07-24T08:06:09;5.43;;;3.28;;
15112;SDS011;7657;50.140;7.076;2023-07-24T08:08:37;5.25;;;3.72;;
15112;SDS011;7657;50.140;7.076;2023-07-24T08:11:04;5.00;;;3.50;;
15112;SDS011;7657;50.140;7.076;2023-07-24T08:13:32;4.35;;;3.92;;
15112;SDS011;7657;50.140;7.076;2023-07-24T08:15:59;3.58;;;3.25;;
15112;SDS011;7657;50.140;7.076;2023-07-24T08:18:29;5.47;;;3.92;;
15112;SDS011;7657;50.140;7.076;2023-07-24T08:20:56;5.55;;;3.65;;
15112;SDS011;7657;50.140;7.076;2023-07-24T08:23:23;4.45;;;3.60;;
15112;SDS011;7657;50.140;7.076;2023-07-24T08:25:53;4.15;;;3.35;;
15112;SDS011;7657;50.140;7.076;2023-07-24T08:28:20;4.20;;;3.50;;
15112;SDS011;7657;50.140;7.076;2023-07-24T08:30:55;6.45;;;3.53;;
15112;SDS011;7657;50.140;7.076;2023-07-24T08:33:23;4.65;;;3.33;;
15112;SDS011;7657;50.140;7.076;2023-07-24T08:35:58;4.05;;;3.25;;
15112;SDS011;7657;50.140;7.076;2023-07-24T08:38:26;6.07;;;4.00;;
15112;SDS011;7657;50.140;7.076;2023-07-24T08:40:59;3.35;;;2.97;;
15112;SDS011;7657;50.140;7.076;2023-07-24T08:43:30;4.80;;;3.40;;
15112;SDS011;7657;50.140;7.076;2023-07-24T08:45:58;3.70;;;3.08;;
15112;SDS011;7657;50.140;7.076;2023-07-24T08:48:26;5.63;;;3.15;;
15112;SDS011;7657;50.140;7.076;2023-07-24T08:50:55;5.05;;;3.38;;
15112;SDS011;7657;50.140;7.076;2023-07-24T08:53:25;6.10;;;4.80;;
15112;SDS011;7657;50.140;7.076;2023-07-24T08:55:53;8.68;;;6.30;;
15112;SDS011;7657;50.140;7.076;2023-07-24T08:58:20;4.75;;;3.35;;
15112;SDS011;7657;50.140;7.076;2023-07-24T09:00:47;3.85;;;3.00;;
15112;SDS011;7657;50.140;7.076;2023-07-24T09:03:16;4.93;;;3.28;;
15112;SDS011;7657;50.140;7.076;2023-07-24T09:05:43;5.55;;;3.50;;
15112;SDS011;7657;50.140;7.076;2023-07-24T09:08:10;3.97;;;3.40;;
15112;SDS011;7657;50.140;7.076;2023-07-24T09:10:38;7.40;;;4.80;;
15112;SDS011;7657;50.140;7.076;2023-07-24T09:13:05;3.97;;;2.90;;
15112;SDS011;7657;50.140;7.076;2023-07-24T09:15:39;4.97;;;3.00;;
15112;SDS011;7657;50.140;7.076;2023-07-24T09:18:06;3.92;;;3.10;;
15112;SDS011;7657;50.140;7.076;2023-07-24T09:20:37;3.47;;;2.90;;
15112;SDS011;7657;50.140;7.076;2023-07-24T09:23:05;3.88;;;3.17;;
15112;SDS011;7657;50.140;7.076;2023-07-24T09:25:33;4.03;;;2.67;;
15112;SDS011;7657;50.140;7.076;2023-07-24T09:28:08;3.67;;;3.05;;
15112;SDS011;7657;50.140;7.076;2023-07-24T09:30:36;3.63;;;2.70;;
15112;SDS011;7657;50.140;7.076;2023-07-24T09:33:03;3.55;;;2.70;;
15112;SDS011;7657;50.140;7.076;2023-07-24T09:35:30;2.67;;;2.40;;
15112;SDS011;7657;50.140;7.076;2023-07-24T09:38:04;4.57;;;2.67;;
15112;SDS011;7657;50.140;7.076;2023-07-24T09:40:38;4.07;;;2.80;;
15112;SDS011;7657;50.140;7.076;2023-07-24T09:43:20;2.85;;;2.42;;
15112;SDS011;7657;50.140;7.076;2023-07-24T09:45:49;4.68;;;2.50;;
15112;SDS011;7657;50.140;7.076;2023-07-24T09:48:17;3.05;;;2.25;;
15112;SDS011;7657;50.140;7.076;2023-07-24T09:50:46;3.50;;;2.53;;
15112;SDS011;7657;50.140;7.076;2023-07-24T09:53:18;3.20;;;2.67;;
15112;SDS011;7657;50.140;7.076;2023-07-24T09:55:49;5.93;;;3.63;;
15112;SDS011;7657;50.140;7.076;2023-07-24T09:58:23;5.10;;;3.20;;
15112;SDS011;7657;50.140;7.076;2023-07-24T10:00:52;4.78;;;3.00;;
15112;SDS011;7657;50.140;7.076;2023-07-24T10:03:20;4.75;;;3.25;;
15112;SDS011;7657;50.140;7.076;2023-07-24T10:05:48;4.75;;;3.20;;
15112;SDS011;7657;50.140;7.076;2023-07-24T10:08:16;3.88;;;3.47;;
15112;SDS011;7657;50.140;7.076;2023-07-24T10:10:44;4.13;;;3.13;;
15112;SDS011;7657;50.140;7.076;2023-07-24T10:13:12;4.95;;;3.42;;
15112;SDS011;7657;50.140;7.076;2023-07-24T10:15:42;4.20;;;3.42;;
15112;SDS011;7657;50.140;7.076;2023-07-24T10:18:09;6.43;;;3.60;;
15112;SDS011;7657;50.140;7.076;2023-07-24T10:20:37;4.93;;;3.50;;
15112;SDS011;7657;50.140;7.076;2023-07-24T10:23:06;5.22;;;3.67;;
15112;SDS011;7657;50.140;7.076;2023-07-24T10:25:34;7.82;;;3.70;;
15112;SDS011;7657;50.140;7.076;2023-07-24T10:28:03;7.00;;;3.70;;
15112;SDS011;7657;50.140;7.076;2023-07-24T10:30:33;5.13;;;3.42;;
15112;SDS011;7657;50.140;7.076;2023-07-24T10:33:08;4.88;;;3.80;;
15112;SDS011;7657;50.140;7.076;2023-07-24T10:35:37;4.55;;;3.53;;
15112;SDS011;7657;50.140;7.076;2023-07-24T10:38:04;4.43;;;3.83;;
15112;SDS011;7657;50.140;7.076;2023-07-24T10:40:32;5.00;;;3.63;;
15112;SDS011;7657;50.140;7.076;2023-07-24T10:43:00;4.72;;;3.38;;
15112;SDS011;7657;50.140;7.076;2023-07-24T10:45:39;5.00;;;3.78;;
15112;SDS011;7657;50.140;7.076;2023-07-24T10:48:08;6.93;;;3.85;;
15112;SDS011;7657;50.140;7.076;2023-07-24T10:50:37;6.80;;;4.15;;
15112;SDS011;7657;50.140;7.076;2023-07-24T10:53:05;4.53;;;3.88;;
15112;SDS011;7657;50.140;7.076;2023-07-24T10:55:32;4.82;;;3.78;;
15112;SDS011;7657;50.140;7.076;2023-07-24T10:57:59;4.93;;;3.15;;
15112;SDS011;7657;50.140;7.076;2023-07-24T11:00:26;4.68;;;3.20;;
15112;SDS011;7657;50.140;7.076;2023-07-24T11:02:53;5.53;;;3.45;;
15112;SDS011;7657;50.140;7.076;2023-07-24T11:05:22;4.05;;;3.05;;
15112;SDS011;7657;50.140;7.076;2023-07-24T11:07:49;3.72;;;3.17;;
15112;SDS011;7657;50.140;7.076;2023-07-24T11:10:16;4.70;;;3.50;;
15112;SDS011;7657;50.140;7.076;2023-07-24T11:12:43;4.10;;;2.95;;
15112;SDS011;7657;50.140;7.076;2023-07-24T11:15:11;3.40;;;3.10;;
15112;SDS011;7657;50.140;7.076;2023-07-24T11:17:39;3.40;;;2.85;;
15112;SDS011;7657;50.140;7.076;2023-07-24T11:20:08;5.38;;;3.30;;
15112;SDS011;7657;50.140;7.076;2023-07-24T11:22:39;4.82;;;2.60;;
15112;SDS011;7657;50.140;7.076;2023-07-24T11:25:07;6.40;;;3.10;;
15112;SDS011;7657;50.140;7.076;2023-07-24T11:27:38;3.45;;;3.00;;
15112;SDS011;7657;50.140;7.076;2023-07-24T11:30:07;3.70;;;2.70;;
15112;SDS011;7657;50.140;7.076;2023-07-24T11:32:34;3.10;;;2.78;;
15112;SDS011;7657;50.140;7.076;2023-07-24T11:35:04;3.35;;;3.05;;
15112;SDS011;7657;50.140;7.076;2023-07-24T11:37:31;3.10;;;2.63;;
15112;SDS011;7657;50.140;7.076;2023-07-24T11:40:00;3.65;;;2.50;;
15112;SDS011;7657;50.140;7.076;2023-07-24T11:42:29;2.83;;;2.50;;
15112;SDS011;7657;50.140;7.076;2023-07-24T11:45:00;5.13;;;2.88;;
15112;SDS011;7657;50.140;7.076;2023-07-24T11:47:27;2.65;;;2.45;;
15112;SDS011;7657;50.140;7.076;2023-07-24T11:49:56;7.15;;;3.60;;
15112;SDS011;7657;50.140;7.076;2023-07-24T11:52:24;5.35;;;3.03;;
15112;SDS011;7657;50.140;7.076;2023-07-24T11:54:56;4.88;;;3.00;;
15112;SDS011;7657;50.140;7.076;2023-07-24T11:57:27;3.90;;;2.72;;
15112;SDS011;7657;50.140;7.076;2023-07-24T11:59:54;3.20;;;2.90;;
15112;SDS011;7657;50.140;7.076;2023-07-24T12:02:23;4.43;;;2.85;;
15112;SDS011;7657;50.140;7.076;2023-07-24T12:04:55;5.18;;;3.28;;
15112;SDS011;7657;50.140;7.076;2023-07-24T12:07:28;4.50;;;2.95;;
15112;SDS011;7657;50.140;7.076;2023-07-24T12:09:56;4.10;;;2.72;;
15112;SDS011;7657;50.140;7.076;2023-07-24T12:12:23;3.13;;;2.50;;
15112;SDS011;7657;50.140;7.076;2023-07-24T12:14:51;3.78;;;2.75;;
15112;SDS011;7657;50.140;7.076;2023-07-24T12:17:18;2.80;;;2.58;;
15112;SDS011;7657;50.140;7.076;2023-07-24T12:19:46;3.65;;;2.50;;
15112;SDS011;7657;50.140;7.076;2023-07-24T12:22:13;3.67;;;2.58;;
15112;SDS011;7657;50.140;7.076;2023-07-24T12:24:40;2.50;;;2.30;;
15112;SDS011;7657;50.140;7.076;2023-07-24T12:27:07;2.78;;;2.58;;
15112;SDS011;7657;50.140;7.076;2023-07-24T12:29:34;2.95;;;2.65;;
15112;SDS011;7657;50.140;7.076;2023-07-24T12:32:02;4.43;;;2.67;;
15112;SDS011;7657;50.140;7.076;2023-07-24T12:34:29;3.58;;;2.00;;
15112;SDS011;7657;50.140;7.076;2023-07-24T12:36:56;2.92;;;2.60;;
15112;SDS011;7657;50.140;7.076;2023-07-24T12:39:23;2.63;;;2.42;;
15112;SDS011;7657;50.140;7.076;2023-07-24T12:41:50;3.83;;;2.47;;
15112;SDS011;7657;50.140;7.076;2023-07-24T12:44:16;2.60;;;2.40;;
15112;SDS011;7657;50.140;7.076;2023-07-24T12:46:43;2.50;;;2.10;;
15112;SDS011;7657;50.140;7.076;2023-07-24T12:49:12;3.45;;;2.38;;
15112;SDS011;7657;50.140;7.076;2023-07-24T12:51:38;2.75;;;2.10;;
15112;SDS011;7657;50.140;7.076;2023-07-24T12:54:05;2.35;;;2.13;;
15112;SDS011;7657;50.140;7.076;2023-07-24T12:56:32;1.95;;;1.85;;
15112;SDS011;7657;50.140;7.076;2023-07-24T12:59:00;2.33;;;1.90;;
15112;SDS011;7657;50.140;7.076;2023-07-24T13:01:28;3.15;;;1.90;;
15112;SDS011;7657;50.140;7.076;2023-07-24T13:03:55;3.65;;;2.25;;
15112;SDS011;7657;50.140;7.076;2023-07-24T13:06:23;1.45;;;1.35;;
15112;SDS011;7657;50.140;7.076;2023-07-24T13:08:50;1.88;;;1.77;;
15112;SDS011;7657;50.140;7.076;2023-07-24T13:11:17;2.60;;;1.75;;
15112;SDS011;7657;50.140;7.076;2023-07-24T13:13:43;2.08;;;1.50;;
15112;SDS011;7657;50.140;7.076;2023-07-24T13:16:10;1.58;;;1.42;;
15112;SDS011;7657;50.140;7.076;2023-07-24T13:18:37;1.48;;;1.38;;
15112;SDS011;7657;50.140;7.076;2023-07-24T13:21:04;1.60;;;1.38;;
15112;SDS011;7657;50.140;7.076;2023-07-24T13:23:34;1.85;;;1.60;;
15112;SDS011;7657;50.140;7.076;2023-07-24T13:26:01;1.58;;;1.48;;
15112;SDS011;7657;50.140;7.076;2023-07-24T13:28:27;2.25;;;2.05;;
15112;SDS011;7657;50.140;7.076;2023-07-24T13:30:54;3.40;;;1.67;;
15112;SDS011;7657;50.140;7.076;2023-07-24T13:33:21;1.70;;;1.50;;
15112;SDS011;7657;50.140;7.076;2023-07-24T13:35:48;2.88;;;1.73;;
15112;SDS011;7657;50.140;7.076;2023-07-24T13:38:15;1.67;;;1.50;;
15112;SDS011;7657;50.140;7.076;2023-07-24T13:40:44;1.80;;;1.52;;
15112;SDS011;7657;50.140;7.076;2023-07-24T13:43:11;2.40;;;1.00;;
15112;SDS011;7657;50.140;7.076;2023-07-24T13:45:37;1.20;;;1.10;;
15112;SDS011;7657;50.140;7.076;2023-07-24T13:48:04;1.30;;;0.63;;
15112;SDS011;7657;50.140;7.076;2023-07-24T13:50:31;1.23;;;0.90;;
15112;SDS011;7657;50.140;7.076;2023-07-24T13:52:58;1.40;;;0.73;;
15112;SDS011;7657;50.140;7.076;2023-07-24T13:55:25;0.85;;;0.80;;
15112;SDS011;7657;50.140;7.076;2023-07-24T13:57:53;0.88;;;0.85;;
15112;SDS011;7657;50.140;7.076;2023-07-24T14:00:20;3.50;;;1.15;;
15112;SDS011;7657;50.140;7.076;2023-07-24T14:02:47;1.65;;;0.93;;
15112;SDS011;7657;50.140;7.076;2023-07-24T14:05:15;1.23;;;1.10;;
15112;SDS011;7657;50.140;7.076;2023-07-24T14:07:42;1.00;;;1.00;;
15112;SDS011;7657;50.140;7.076;2023-07-24T14:10:09;2.33;;;0.88;;
15112;SDS011;7657;50.140;7.076;2023-07-24T14:12:37;1.23;;;1.13;;
15112;SDS011;7657;50.140;7.076;2023-07-24T14:15:05;2.20;;;1.20;;
15112;SDS011;7657;50.140;7.076;2023-07-24T14:17:33;1.30;;;1.20;;
15112;SDS011;7657;50.140;7.076;2023-07-24T14:20:01;0.90;;;0.90;;
15112;SDS011;7657;50.140;7.076;2023-07-24T14:22:28;1.38;;;1.20;;
15112;SDS011;7657;50.140;7.076;2023-07-24T14:24:54;1.80;;;1.05;;
15112;SDS011;7657;50.140;7.076;2023-07-24T14:27:21;1.50;;;1.40;;
15112;SDS011;7657;50.140;7.076;2023-07-24T14:29:48;1.40;;;1.30;;
15112;SDS011;7657;50.140;7.076;2023-07-24T14:32:16;1.88;;;1.05;;
15112;SDS011;7657;50.140;7.076;2023-07-24T14:34:43;1.90;;;1.50;;
15112;SDS011;7657;50.140;7.076;2023-07-24T14:37:10;1.50;;;1.40;;
15112;SDS011;7657;50.140;7.076;2023-07-24T14:39:37;2.13;;;1.52;;
15112;SDS011;7657;50.140;7.076;2023-07-24T14:42:04;6.93;;;1.40;;
15112;SDS011;7657;50.140;7.076;2023-07-24T14:44:31;1.92;;;1.40;;
15112;SDS011;7657;50.140;7.076;2023-07-24T14:46:58;2.83;;;1.58;;
15112;SDS011;7657;50.140;7.076;2023-07-24T14:49:26;2.88;;;1.50;;
15112;SDS011;7657;50.140;7.076;2023-07-24T14:51:53;4.80;;;2.08;;
15112;SDS011;7657;50.140;7.076;2023-07-24T14:54:20;1.50;;;1.40;;
15112;SDS011;7657;50.140;7.076;2023-07-24T14:56:47;3.63;;;2.13;;
15112;SDS011;7657;50.140;7.076;2023-07-24T14:59:15;2.53;;;1.70;;
15112;SDS011;7657;50.140;7.076;2023-07-24T15:01:42;1.98;;;1.30;;
15112;SDS011;7657;50.140;7.076;2023-07-24T15:04:09;1.60;;;1.50;;